»·PEaware :: N781CV KAST-KPAE

N781CV :: KAST-KPAE

FLIGHT INFORMATION

Flight Status: Arrived
Operator: Privately registered:
United States
More flights under this callsign
Pilot: Drew L. (13237)
Aircraft: PIPER PA-28R-201 ARROW
(P28R)
More flights by this aircraft type
Origin: KAST Astoria Regl
United States
Destination: KPAE Paine Field/Snohomish Co.
United States
More flights between these airports :: More routes between these airports
Route: KPWT LOFAL
File this flight plan on PilotEdge
Remarks:
Altitude:
(Current/Filed)
7,500ft
Speed:
(Current/Filed)
112kts
Departed: 01-Oct-19 06:11 PM
Arrived: 01-Oct-19 08:07 PM
Distance/Time
Traveled:
124nm/1:56
Distance/Time
To Go:
Arrived

Flight Plot

Page will automatically refresh every two minutes.

Flight plan parsing failed; only flown route is shown


Map Options




Map Legend


Flown Route
Filed Route
Departure Airport
Arrival Airport
Navaid (VOR, NDB)
Fix

Horizontal Profiles

Position Reports

Time Latitude Longitude Heading Altitude Ground
Speed
01-Oct-19 18:08 46.156355 -123.881533 242 15ft 0kts
01-Oct-19 18:09 46.156133 -123.880598 136 15ft 8kts
01-Oct-19 18:10 46.160447 -123.881691 332 113ft 51kts
01-Oct-19 18:11 46.172980 -123.881420 40 891ft 90kts
01-Oct-19 18:12 46.193404 -123.854916 37 1920ft 103kts
01-Oct-19 18:13 46.214569 -123.826951 37 2912ft 103kts
01-Oct-19 18:14 46.235608 -123.798609 37 3820ft 104kts
01-Oct-19 18:15 46.256556 -123.769943 38 4654ft 104kts
01-Oct-19 18:16 46.277769 -123.741466 33 5421ft 103kts
01-Oct-19 18:17 46.302843 -123.730929 347 6118ft 97kts
01-Oct-19 18:18 46.329675 -123.738469 347 6749ft 98kts
01-Oct-19 18:19 46.356519 -123.746336 347 7334ft 99kts
01-Oct-19 18:20 46.385328 -123.755068 347 7553ft 117kts
01-Oct-19 18:22 46.418036 -123.764907 348 7550ft 121kts
01-Oct-19 18:23 46.450981 -123.774725 348 7550ft 121kts
01-Oct-19 18:24 46.483961 -123.784465 348 7550ft 121kts
01-Oct-19 18:25 46.517071 -123.794155 348 7550ft 121kts
01-Oct-19 18:26 46.550089 -123.803729 348 7550ft 121kts
01-Oct-19 18:27 46.582926 -123.813188 348 7550ft 116kts
01-Oct-19 18:28 46.614368 -123.822306 348 7552ft 115kts
01-Oct-19 18:29 46.645700 -123.831440 348 7554ft 114kts
01-Oct-19 18:30 46.677036 -123.840620 348 7556ft 114kts
01-Oct-19 18:31 46.708343 -123.849840 349 7558ft 114kts
01-Oct-19 18:32 46.739417 -123.859016 349 7558ft 115kts
01-Oct-19 18:33 46.770675 -123.868175 349 7558ft 115kts
01-Oct-19 18:34 46.802091 -123.876269 9 7549ft 115kts
01-Oct-19 18:35 46.809958 -123.831038 86 7558ft 127kts
01-Oct-19 18:36 46.808458 -123.779335 86 7558ft 127kts
01-Oct-19 18:37 46.806908 -123.727595 86 7558ft 127kts
01-Oct-19 18:38 46.805311 -123.675878 86 7558ft 127kts
01-Oct-19 18:39 46.803664 -123.624124 86 7558ft 127kts
01-Oct-19 18:40 46.801978 -123.572284 86 7556ft 128kts
01-Oct-19 18:41 46.800340 -123.520255 86 7551ft 129kts
01-Oct-19 18:41 46.799029 -123.476427 86 7547ft 129kts
01-Oct-19 18:43 46.797308 -123.414915 86 7542ft 130kts
01-Oct-19 18:43 46.796434 -123.371658 86 7536ft 122kts
01-Oct-19 18:44 46.795661 -123.322525 87 7537ft 120kts
01-Oct-19 18:46 46.794437 -123.265281 87 7539ft 121kts
01-Oct-19 18:46 46.793384 -123.224251 87 7541ft 121kts
01-Oct-19 18:47 46.791938 -123.174512 87 7542ft 122kts
01-Oct-19 18:49 46.789966 -123.120045 87 7543ft 112kts
01-Oct-19 18:49 46.788473 -123.082322 87 7544ft 111kts
01-Oct-19 18:50 46.786727 -123.036928 87 7544ft 112kts
01-Oct-19 18:51 46.785040 -122.991497 87 7544ft 112kts
01-Oct-19 18:52 46.783410 -122.945959 87 7544ft 112kts
01-Oct-19 18:53 46.781832 -122.900259 88 7544ft 112kts
01-Oct-19 18:54 46.780306 -122.854521 88 7543ft 113kts
01-Oct-19 18:55 46.778731 -122.808566 88 7543ft 113kts
01-Oct-19 18:56 46.777101 -122.762418 88 7542ft 113kts
01-Oct-19 18:57 46.775440 -122.716279 88 7541ft 114kts
01-Oct-19 18:58 46.773956 -122.676248 88 7541ft 114kts
01-Oct-19 18:59 46.772220 -122.629824 88 7540ft 114kts
01-Oct-19 19:00 46.770467 -122.583529 88 7542ft 114kts
01-Oct-19 19:01 46.768710 -122.537382 88 7544ft 114kts
01-Oct-19 19:02 46.766957 -122.491324 88 7545ft 113kts
01-Oct-19 19:03 46.766535 -122.444773 88 7549ft 115kts
01-Oct-19 19:04 46.766238 -122.398091 88 7550ft 115kts
01-Oct-19 19:05 46.765920 -122.351470 88 7550ft 115kts
01-Oct-19 19:06 46.765559 -122.304767 89 7550ft 115kts
01-Oct-19 19:07 46.779393 -122.266815 40 7550ft 112kts
01-Oct-19 19:08 46.802998 -122.236625 40 7550ft 113kts
01-Oct-19 19:09 46.826610 -122.206325 40 7550ft 113kts
01-Oct-19 19:10 46.850154 -122.176005 40 7550ft 113kts
01-Oct-19 19:11 46.873662 -122.145622 40 7550ft 113kts
01-Oct-19 19:12 46.897080 -122.115179 40 7550ft 112kts
01-Oct-19 19:13 46.920298 -122.084591 40 7549ft 112kts
01-Oct-19 19:14 46.943220 -122.053980 40 7549ft 111kts
01-Oct-19 19:15 46.965903 -122.023297 40 7549ft 110kts
01-Oct-19 19:16 46.988212 -121.992747 40 7549ft 109kts
01-Oct-19 19:17 47.010425 -121.962406 30 7545ft 108kts
01-Oct-19 19:18 47.039583 -121.958618 8 7549ft 106kts
01-Oct-19 19:19 47.068567 -121.951751 8 7549ft 105kts
01-Oct-19 19:20 47.097521 -121.944810 8 7548ft 105kts
01-Oct-19 19:21 47.126386 -121.937810 8 7551ft 106kts
01-Oct-19 19:22 47.153481 -121.920918 28 7551ft 106kts
01-Oct-19 19:23 47.179067 -121.898877 28 7551ft 106kts
01-Oct-19 19:24 47.204576 -121.876611 28 7551ft 107kts
01-Oct-19 19:25 47.230057 -121.853907 28 7551ft 107kts
01-Oct-19 19:26 47.255359 -121.830862 28 7551ft 107kts
01-Oct-19 19:27 47.280717 -121.807329 28 7551ft 107kts
01-Oct-19 19:28 47.305855 -121.783636 28 7551ft 108kts
01-Oct-19 19:29 47.331208 -121.759439 28 7550ft 108kts
01-Oct-19 19:30 47.356430 -121.735129 28 7550ft 108kts
01-Oct-19 19:31 47.381700 -121.710621 28 7550ft 108kts
01-Oct-19 19:32 47.406945 -121.686038 28 7550ft 108kts
01-Oct-19 19:33 47.432247 -121.661298 28 7550ft 108kts
01-Oct-19 19:34 47.457418 -121.636585 29 7550ft 108kts
01-Oct-19 19:35 47.482592 -121.611769 29 7550ft 108kts
01-Oct-19 19:36 47.507751 -121.586866 29 7550ft 108kts
01-Oct-19 19:37 47.532834 -121.561937 29 7550ft 108kts
01-Oct-19 19:38 47.557912 -121.536914 29 7550ft 108kts
01-Oct-19 19:39 47.583747 -121.515496 355 7551ft 105kts
01-Oct-19 19:40 47.612812 -121.519577 352 7550ft 105kts
01-Oct-19 19:41 47.641922 -121.523903 352 7550ft 105kts
01-Oct-19 19:42 47.671008 -121.528148 352 7550ft 105kts
01-Oct-19 19:43 47.700161 -121.532343 352 7551ft 105kts
01-Oct-19 19:44 47.729281 -121.536545 352 7552ft 105kts
01-Oct-19 19:45 47.758251 -121.540747 352 7554ft 104kts
01-Oct-19 19:46 47.787285 -121.544978 353 7555ft 104kts
01-Oct-19 19:47 47.816305 -121.549230 353 7557ft 104kts
01-Oct-19 19:48 47.842614 -121.559551 300 7557ft 108kts
01-Oct-19 19:49 47.851642 -121.602576 280 7559ft 111kts
01-Oct-19 19:50 47.854806 -121.648612 281 7558ft 111kts
01-Oct-19 19:51 47.858655 -121.694420 281 7558ft 111kts
01-Oct-19 19:52 47.862530 -121.740224 281 7567ft 111kts
01-Oct-19 19:53 47.866413 -121.786264 281 7567ft 112kts
01-Oct-19 19:54 47.870308 -121.832673 281 7567ft 113kts
01-Oct-19 19:55 47.874207 -121.879380 281 7567ft 113kts
01-Oct-19 19:56 47.878083 -121.926030 281 7567ft 113kts
01-Oct-19 19:57 47.881971 -121.973072 281 7567ft 114kts
01-Oct-19 19:58 47.890267 -122.025005 293 4264ft 112kts
01-Oct-19 19:59 47.896773 -122.063159 281 3939ft 91kts
01-Oct-19 20:00 47.899301 -122.104950 274 3613ft 110kts
01-Oct-19 20:01 47.901572 -122.155412 272 2777ft 120kts
01-Oct-19 20:02 47.896515 -122.201525 253 2412ft 110kts
01-Oct-19 20:03 47.888073 -122.235235 258 1694ft 69kts
01-Oct-19 20:04 47.884947 -122.262704 281 1159ft 67kts
01-Oct-19 20:05 47.898250 -122.271627 355 570ft 55kts
01-Oct-19 20:06 47.902216 -122.272377 235 558ft 7kts
01-Oct-19 20:07 47.903875 -122.275393 1 558ft 0kts
01-Oct-19 20:08 47.903913 -122.275392 1 558ft 0kts
01-Oct-19 20:09 47.903913 -122.275392 1 558ft 0kts
01-Oct-19 20:10 47.903913 -122.275392 1 558ft 0kts
01-Oct-19 20:11 47.903913 -122.275392 1 558ft 0kts
01-Oct-19 20:12 47.903913 -122.275392 1 558ft 0kts
01-Oct-19 20:13 47.903913 -122.275392 1 558ft 0kts
01-Oct-19 20:14 47.903913 -122.275392 1 558ft 0kts
01-Oct-19 20:15 47.903913 -122.275392 1 558ft 0kts
01-Oct-19 20:16 47.903913 -122.275392 1 558ft 0kts

Navigation Log

Ident Type
Flight plan parsing failed, navigation log unavailable